Dalmeny, Canada
Current Conditions -  °F | °C
As of 4:00 AM on Friday 24 Oct 2014 (Local Time) from CYXE Reporting Station
Broken Clouds Broken Clouds  
Wind Chill:   Ceiling: 10000
Heat Index:   Visibility: 15mi
Dew Point:   Wind: 7mph
Humidity: 87%   Direction: 260°W
Pressure: 29.57"   Gusts: NA
Location:  52.33°N, 106.78°W
Report Text: CYXE 241000Z 26006KT 15SM BKN100 BKN210 04/02 A2957 RMK AC5CI1 SLP025
Loading
Personal Weather Stations






























Interactive Weather Map
Tropical Storm Tracking
New forecast layout! Learn more

10-Day Weather Forecast

Advertisements
Track Severe Weather on mobile